sensor_id;sensor_type;location;lat;lon;timestamp;temperature;humidity
152;DHT22;68;48.792;9.164;2024-03-23T00:52:02;11.60;84.00
152;DHT22;68;48.792;9.164;2024-03-23T00:54:28;11.40;85.20
152;DHT22;68;48.792;9.164;2024-03-23T00:56:54;11.40;84.60
152;DHT22;68;48.792;9.164;2024-03-23T00:59:20;11.50;83.50
152;DHT22;68;48.792;9.164;2024-03-23T01:01:48;11.40;85.10
152;DHT22;68;48.792;9.164;2024-03-23T01:04:13;11.20;85.30
152;DHT22;68;48.792;9.164;2024-03-23T01:06:40;11.00;86.20
152;DHT22;68;48.792;9.164;2024-03-23T01:09:07;11.20;86.10
152;DHT22;68;48.792;9.164;2024-03-23T01:11:36;11.20;85.40
152;DHT22;68;48.792;9.164;2024-03-23T01:14:02;11.50;85.40
152;DHT22;68;48.792;9.164;2024-03-23T01:16:28;11.40;85.20
152;DHT22;68;48.792;9.164;2024-03-23T01:18:54;11.50;85.60
152;DHT22;68;48.792;9.164;2024-03-23T01:21:21;11.60;85.10
152;DHT22;68;48.792;9.164;2024-03-23T01:23:47;11.60;84.70
152;DHT22;68;48.792;9.164;2024-03-23T01:26:15;12.00;83.00
152;DHT22;68;48.792;9.164;2024-03-23T01:28:40;12.30;82.10
152;DHT22;68;48.792;9.164;2024-03-23T01:31:07;12.40;81.90
152;DHT22;68;48.792;9.164;2024-03-23T01:33:33;12.40;81.90
152;DHT22;68;48.792;9.164;2024-03-23T01:36:00;12.30;82.40
152;DHT22;68;48.792;9.164;2024-03-23T01:38:25;12.20;82.50
152;DHT22;68;48.792;9.164;2024-03-23T01:40:56;12.30;82.80
152;DHT22;68;48.792;9.164;2024-03-23T01:43:24;12.10;83.50
152;DHT22;68;48.792;9.164;2024-03-23T01:45:51;12.10;83.80
152;DHT22;68;48.792;9.164;2024-03-23T01:48:19;12.20;82.90
152;DHT22;68;48.792;9.164;2024-03-23T01:50:46;12.40;81.30
152;DHT22;68;48.792;9.164;2024-03-23T01:53:12;12.70;80.00
152;DHT22;68;48.792;9.164;2024-03-23T01:55:42;12.80;79.70
152;DHT22;68;48.792;9.164;2024-03-23T01:58:08;12.70;80.20
152;DHT22;68;48.792;9.164;2024-03-23T02:00:36;12.70;80.00
152;DHT22;68;48.792;9.164;2024-03-23T02:03:02;12.70;80.40
152;DHT22;68;48.792;9.164;2024-03-23T02:05:48;12.70;80.20
152;DHT22;68;48.792;9.164;2024-03-23T02:08:14;12.70;80.60
152;DHT22;68;48.792;9.164;2024-03-23T02:10:41;12.70;80.80
152;DHT22;68;48.792;9.164;2024-03-23T02:13:08;12.60;81.60
152;DHT22;68;48.792;9.164;2024-03-23T02:15:36;12.60;81.60
152;DHT22;68;48.792;9.164;2024-03-23T02:18:01;12.70;81.50
152;DHT22;68;48.792;9.164;2024-03-23T02:20:28;12.60;81.50
152;DHT22;68;48.792;9.164;2024-03-23T02:22:55;12.70;81.30
152;DHT22;68;48.792;9.164;2024-03-23T02:25:22;12.60;81.70
152;DHT22;68;48.792;9.164;2024-03-23T02:27:48;12.60;82.00
152;DHT22;68;48.792;9.164;2024-03-23T02:30:15;12.70;81.50
152;DHT22;68;48.792;9.164;2024-03-23T02:32:40;12.70;81.80
152;DHT22;68;48.792;9.164;2024-03-23T02:35:07;12.60;81.90
152;DHT22;68;48.792;9.164;2024-03-23T02:37:33;12.60;82.70
152;DHT22;68;48.792;9.164;2024-03-23T02:40:01;12.60;82.30
152;DHT22;68;48.792;9.164;2024-03-23T02:42:27;12.40;83.10
152;DHT22;68;48.792;9.164;2024-03-23T02:44:54;12.30;83.70
152;DHT22;68;48.792;9.164;2024-03-23T02:47:20;12.20;84.50
152;DHT22;68;48.792;9.164;2024-03-23T02:49:46;12.30;84.00
152;DHT22;68;48.792;9.164;2024-03-23T02:52:12;12.40;83.50
152;DHT22;68;48.792;9.164;2024-03-23T02:54:39;12.60;83.30
152;DHT22;68;48.792;9.164;2024-03-23T02:57:06;12.60;82.80
152;DHT22;68;48.792;9.164;2024-03-23T02:59:33;12.60;83.60
152;DHT22;68;48.792;9.164;2024-03-23T03:01:59;12.70;83.20
152;DHT22;68;48.792;9.164;2024-03-23T03:04:26;12.50;83.80
152;DHT22;68;48.792;9.164;2024-03-23T03:06:52;12.50;83.80
152;DHT22;68;48.792;9.164;2024-03-23T03:09:19;12.50;83.80
152;DHT22;68;48.792;9.164;2024-03-23T03:11:45;12.50;84.10
152;DHT22;68;48.792;9.164;2024-03-23T03:14:13;12.30;85.00
152;DHT22;68;48.792;9.164;2024-03-23T03:16:39;12.40;84.90
152;DHT22;68;48.792;9.164;2024-03-23T03:19:05;12.50;84.40
152;DHT22;68;48.792;9.164;2024-03-23T03:21:31;12.40;84.40
152;DHT22;68;48.792;9.164;2024-03-23T03:23:58;12.30;85.40
152;DHT22;68;48.792;9.164;2024-03-23T03:26:24;12.50;84.80
152;DHT22;68;48.792;9.164;2024-03-23T03:28:51;12.60;84.30
152;DHT22;68;48.792;9.164;2024-03-23T03:31:18;12.60;84.50
152;DHT22;68;48.792;9.164;2024-03-23T03:33:45;12.30;85.10
152;DHT22;68;48.792;9.164;2024-03-23T03:36:11;12.30;85.40
152;DHT22;68;48.792;9.164;2024-03-23T03:38:37;12.50;84.80
152;DHT22;68;48.792;9.164;2024-03-23T03:41:04;12.40;85.30
152;DHT22;68;48.792;9.164;2024-03-23T03:43:31;12.20;86.20
152;DHT22;68;48.792;9.164;2024-03-23T03:45:58;12.30;85.50
152;DHT22;68;48.792;9.164;2024-03-23T03:48:27;12.00;86.00
152;DHT22;68;48.792;9.164;2024-03-23T03:50:53;12.20;85.70
152;DHT22;68;48.792;9.164;2024-03-23T03:53:19;12.20;86.10
152;DHT22;68;48.792;9.164;2024-03-23T03:55:45;12.20;85.30
152;DHT22;68;48.792;9.164;2024-03-23T03:58:12;12.00;86.70
152;DHT22;68;48.792;9.164;2024-03-23T04:00:38;11.90;87.50
152;DHT22;68;48.792;9.164;2024-03-23T04:03:05;11.80;87.50
152;DHT22;68;48.792;9.164;2024-03-23T04:05:32;11.70;88.00
152;DHT22;68;48.792;9.164;2024-03-23T04:07:59;11.70;88.80
152;DHT22;68;48.792;9.164;2024-03-23T04:10:25;11.60;88.30
152;DHT22;68;48.792;9.164;2024-03-23T04:12:52;11.30;89.90
152;DHT22;68;48.792;9.164;2024-03-23T04:15:19;11.70;90.00
152;DHT22;68;48.792;9.164;2024-03-23T04:17:45;11.90;88.60
152;DHT22;68;48.792;9.164;2024-03-23T04:20:11;11.70;88.40
152;DHT22;68;48.792;9.164;2024-03-23T04:22:43;11.30;90.90
152;DHT22;68;48.792;9.164;2024-03-23T04:25:09;11.20;92.10
152;DHT22;68;48.792;9.164;2024-03-23T04:27:36;11.10;91.40
152;DHT22;68;48.792;9.164;2024-03-23T04:30:03;11.00;91.90
152;DHT22;68;48.792;9.164;2024-03-23T04:32:35;11.00;92.40
152;DHT22;68;48.792;9.164;2024-03-23T04:35:01;11.10;92.80
152;DHT22;68;48.792;9.164;2024-03-23T04:37:28;11.10;93.10
152;DHT22;68;48.792;9.164;2024-03-23T04:39:56;11.30;93.80
152;DHT22;68;48.792;9.164;2024-03-23T04:42:23;11.20;93.80
152;DHT22;68;48.792;9.164;2024-03-23T04:44:49;11.10;89.90
152;DHT22;68;48.792;9.164;2024-03-23T04:47:16;11.10;90.40
152;DHT22;68;48.792;9.164;2024-03-23T04:49:43;10.90;91.00
152;DHT22;68;48.792;9.164;2024-03-23T04:52:10;10.80;85.90
152;DHT22;68;48.792;9.164;2024-03-23T04:54:37;11.00;84.00
152;DHT22;68;48.792;9.164;2024-03-23T04:57:07;11.30;88.10
152;DHT22;68;48.792;9.164;2024-03-23T04:59:33;11.40;88.80
152;DHT22;68;48.792;9.164;2024-03-23T05:02:00;11.40;90.40
152;DHT22;68;48.792;9.164;2024-03-23T05:04:25;11.30;89.50
152;DHT22;68;48.792;9.164;2024-03-23T05:06:52;11.10;84.10
152;DHT22;68;48.792;9.164;2024-03-23T05:09:18;11.00;81.70
152;DHT22;68;48.792;9.164;2024-03-23T05:11:45;10.90;77.60
152;DHT22;68;48.792;9.164;2024-03-23T05:14:13;10.80;70.70
152;DHT22;68;48.792;9.164;2024-03-23T05:16:40;10.90;76.10
152;DHT22;68;48.792;9.164;2024-03-23T05:19:06;10.70;71.80
152;DHT22;68;48.792;9.164;2024-03-23T05:21:33;10.70;74.40
152;DHT22;68;48.792;9.164;2024-03-23T05:23:59;10.60;76.30
152;DHT22;68;48.792;9.164;2024-03-23T05:26:25;10.60;76.60
152;DHT22;68;48.792;9.164;2024-03-23T05:28:51;10.50;72.90
152;DHT22;68;48.792;9.164;2024-03-23T05:31:26;10.50;72.10
152;DHT22;68;48.792;9.164;2024-03-23T05:33:52;10.50;74.60
152;DHT22;68;48.792;9.164;2024-03-23T05:36:18;10.50;73.70
152;DHT22;68;48.792;9.164;2024-03-23T05:38:44;10.40;72.30
152;DHT22;68;48.792;9.164;2024-03-23T05:41:11;10.40;65.60
152;DHT22;68;48.792;9.164;2024-03-23T05:43:37;10.40;65.80
152;DHT22;68;48.792;9.164;2024-03-23T05:46:04;10.30;63.80
152;DHT22;68;48.792;9.164;2024-03-23T05:48:32;10.30;67.20
152;DHT22;68;48.792;9.164;2024-03-23T05:50:59;10.30;68.90
152;DHT22;68;48.792;9.164;2024-03-23T05:53:25;10.10;64.30
152;DHT22;68;48.792;9.164;2024-03-23T05:55:59;10.10;67.30
152;DHT22;68;48.792;9.164;2024-03-23T05:58:25;10.00;69.20
152;DHT22;68;48.792;9.164;2024-03-23T06:00:57;9.80;79.10
152;DHT22;68;48.792;9.164;2024-03-23T06:03:24;9.70;74.10
152;DHT22;68;48.792;9.164;2024-03-23T06:05:52;9.60;74.10
152;DHT22;68;48.792;9.164;2024-03-23T06:08:18;9.60;83.50
152;DHT22;68;48.792;9.164;2024-03-23T06:10:45;9.70;83.10
152;DHT22;68;48.792;9.164;2024-03-23T06:13:11;9.70;87.80
152;DHT22;68;48.792;9.164;2024-03-23T06:15:38;9.60;86.50
152;DHT22;68;48.792;9.164;2024-03-23T06:18:04;9.60;87.90
152;DHT22;68;48.792;9.164;2024-03-23T06:20:33;9.70;90.80
152;DHT22;68;48.792;9.164;2024-03-23T06:23:00;9.60;92.80
152;DHT22;68;48.792;9.164;2024-03-23T06:25:27;9.50;92.50
152;DHT22;68;48.792;9.164;2024-03-23T06:27:53;9.50;92.30
152;DHT22;68;48.792;9.164;2024-03-23T06:30:19;9.50;92.00
152;DHT22;68;48.792;9.164;2024-03-23T06:32:45;9.60;91.40
152;DHT22;68;48.792;9.164;2024-03-23T06:35:12;9.60;93.70
152;DHT22;68;48.792;9.164;2024-03-23T06:37:38;9.60;93.30
152;DHT22;68;48.792;9.164;2024-03-23T06:40:08;9.60;94.20
152;DHT22;68;48.792;9.164;2024-03-23T06:42:35;9.50;94.90
152;DHT22;68;48.792;9.164;2024-03-23T06:45:02;9.40;94.30
152;DHT22;68;48.792;9.164;2024-03-23T06:47:29;9.20;93.40
152;DHT22;68;48.792;9.164;2024-03-23T06:49:55;9.30;94.70
152;DHT22;68;48.792;9.164;2024-03-23T06:52:21;9.30;94.10
152;DHT22;68;48.792;9.164;2024-03-23T06:54:48;9.40;94.20
152;DHT22;68;48.792;9.164;2024-03-23T06:57:15;9.40;94.80
152;DHT22;68;48.792;9.164;2024-03-23T06:59:42;9.30;94.50
152;DHT22;68;48.792;9.164;2024-03-23T07:02:08;9.20;94.60
152;DHT22;68;48.792;9.164;2024-03-23T07:04:35;9.10;94.50
152;DHT22;68;48.792;9.164;2024-03-23T07:07:01;9.20;94.00
152;DHT22;68;48.792;9.164;2024-03-23T07:09:28;9.20;95.10
152;DHT22;68;48.792;9.164;2024-03-23T07:11:54;9.30;94.80
152;DHT22;68;48.792;9.164;2024-03-23T07:14:23;9.30;95.40
152;DHT22;68;48.792;9.164;2024-03-23T07:16:49;9.30;95.80
152;DHT22;68;48.792;9.164;2024-03-23T07:19:16;9.30;95.60
152;DHT22;68;48.792;9.164;2024-03-23T07:21:42;9.20;95.70
152;DHT22;68;48.792;9.164;2024-03-23T07:24:09;9.30;95.40
152;DHT22;68;48.792;9.164;2024-03-23T07:26:35;9.30;95.50
152;DHT22;68;48.792;9.164;2024-03-23T07:29:02;9.50;96.00
152;DHT22;68;48.792;9.164;2024-03-23T07:31:29;9.60;95.20
152;DHT22;68;48.792;9.164;2024-03-23T07:33:55;9.70;95.50
152;DHT22;68;48.792;9.164;2024-03-23T07:36:21;9.80;95.50
152;DHT22;68;48.792;9.164;2024-03-23T07:38:48;10.00;94.80
152;DHT22;68;48.792;9.164;2024-03-23T07:41:15;10.00;95.20
152;DHT22;68;48.792;9.164;2024-03-23T07:43:43;10.00;95.30
152;DHT22;68;48.792;9.164;2024-03-23T07:46:09;9.90;94.60
152;DHT22;68;48.792;9.164;2024-03-23T07:48:37;9.70;95.50
152;DHT22;68;48.792;9.164;2024-03-23T07:51:04;9.60;95.90
152;DHT22;68;48.792;9.164;2024-03-23T07:53:32;9.50;95.70
152;DHT22;68;48.792;9.164;2024-03-23T07:55:59;9.00;95.00
152;DHT22;68;48.792;9.164;2024-03-23T07:58:26;8.80;90.70
152;DHT22;68;48.792;9.164;2024-03-23T08:00:52;8.60;90.10
152;DHT22;68;48.792;9.164;2024-03-23T08:03:19;8.50;83.50
152;DHT22;68;48.792;9.164;2024-03-23T08:05:46;8.50;85.40
152;DHT22;68;48.792;9.164;2024-03-23T08:08:13;8.30;82.60
152;DHT22;68;48.792;9.164;2024-03-23T08:10:47;8.30;85.50
152;DHT22;68;48.792;9.164;2024-03-23T08:13:14;8.30;83.40
152;DHT22;68;48.792;9.164;2024-03-23T08:15:40;8.20;86.90
152;DHT22;68;48.792;9.164;2024-03-23T08:18:07;8.20;81.30
152;DHT22;68;48.792;9.164;2024-03-23T08:20:33;8.40;82.30
152;DHT22;68;48.792;9.164;2024-03-23T08:23:01;8.40;86.30
152;DHT22;68;48.792;9.164;2024-03-23T08:25:30;8.50;84.50
152;DHT22;68;48.792;9.164;2024-03-23T08:27:57;8.40;90.10
152;DHT22;68;48.792;9.164;2024-03-23T08:30:23;8.40;88.60
152;DHT22;68;48.792;9.164;2024-03-23T08:32:49;8.40;89.80
152;DHT22;68;48.792;9.164;2024-03-23T08:35:15;8.40;92.80
152;DHT22;68;48.792;9.164;2024-03-23T08:37:42;8.40;89.90
152;DHT22;68;48.792;9.164;2024-03-23T08:40:10;8.40;90.00
152;DHT22;68;48.792;9.164;2024-03-23T08:42:37;8.50;91.50
152;DHT22;68;48.792;9.164;2024-03-23T08:45:03;8.40;88.20
152;DHT22;68;48.792;9.164;2024-03-23T08:47:34;8.40;85.80
152;DHT22;68;48.792;9.164;2024-03-23T08:50:00;8.50;89.40
152;DHT22;68;48.792;9.164;2024-03-23T08:52:27;8.60;87.70
152;DHT22;68;48.792;9.164;2024-03-23T08:54:57;8.70;89.90
152;DHT22;68;48.792;9.164;2024-03-23T08:57:26;8.70;91.30
152;DHT22;68;48.792;9.164;2024-03-23T08:59:51;8.90;93.00
152;DHT22;68;48.792;9.164;2024-03-23T09:02:18;9.00;94.20
152;DHT22;68;48.792;9.164;2024-03-23T09:04:44;9.00;95.00
152;DHT22;68;48.792;9.164;2024-03-23T09:07:11;8.90;95.10
152;DHT22;68;48.792;9.164;2024-03-23T09:09:38;8.70;95.70
152;DHT22;68;48.792;9.164;2024-03-23T09:12:05;8.70;95.60
152;DHT22;68;48.792;9.164;2024-03-23T09:14:33;8.60;95.60
152;DHT22;68;48.792;9.164;2024-03-23T09:16:59;8.50;95.70
152;DHT22;68;48.792;9.164;2024-03-23T09:19:27;8.40;95.70
152;DHT22;68;48.792;9.164;2024-03-23T09:21:54;8.40;95.90
152;DHT22;68;48.792;9.164;2024-03-23T09:24:20;8.30;95.90
152;DHT22;68;48.792;9.164;2024-03-23T09:26:47;8.50;96.20
152;DHT22;68;48.792;9.164;2024-03-23T09:29:13;8.70;95.40
152;DHT22;68;48.792;9.164;2024-03-23T09:31:41;8.80;95.70
152;DHT22;68;48.792;9.164;2024-03-23T09:34:07;9.00;95.10
152;DHT22;68;48.792;9.164;2024-03-23T09:36:33;9.20;95.60
152;DHT22;68;48.792;9.164;2024-03-23T09:38:59;9.60;93.90
152;DHT22;68;48.792;9.164;2024-03-23T09:41:26;9.90;91.20
152;DHT22;68;48.792;9.164;2024-03-23T09:43:52;9.90;87.20
152;DHT22;68;48.792;9.164;2024-03-23T09:46:19;9.90;85.90
152;DHT22;68;48.792;9.164;2024-03-23T09:48:47;9.90;84.70
152;DHT22;68;48.792;9.164;2024-03-23T09:51:14;10.00;83.10
152;DHT22;68;48.792;9.164;2024-03-23T09:53:40;9.90;83.10
152;DHT22;68;48.792;9.164;2024-03-23T09:56:07;9.90;84.80
152;DHT22;68;48.792;9.164;2024-03-23T09:58:34;10.20;83.50
152;DHT22;68;48.792;9.164;2024-03-23T10:01:01;10.50;81.60
152;DHT22;68;48.792;9.164;2024-03-23T10:03:27;10.60;79.30
152;DHT22;68;48.792;9.164;2024-03-23T10:06:03;10.70;78.10
152;DHT22;68;48.792;9.164;2024-03-23T10:08:29;10.70;75.90
152;DHT22;68;48.792;9.164;2024-03-23T10:10:56;10.60;77.30
152;DHT22;68;48.792;9.164;2024-03-23T10:13:26;10.60;77.30
152;DHT22;68;48.792;9.164;2024-03-23T10:15:56;10.80;76.90
152;DHT22;68;48.792;9.164;2024-03-23T10:18:22;11.00;75.40
152;DHT22;68;48.792;9.164;2024-03-23T10:20:51;10.60;74.10
152;DHT22;68;48.792;9.164;2024-03-23T10:23:19;10.60;74.80
152;DHT22;68;48.792;9.164;2024-03-23T10:25:46;10.80;75.00
152;DHT22;68;48.792;9.164;2024-03-23T10:28:12;10.80;77.00
152;DHT22;68;48.792;9.164;2024-03-23T10:30:39;11.10;75.70
152;DHT22;68;48.792;9.164;2024-03-23T10:33:08;11.10;73.50
152;DHT22;68;48.792;9.164;2024-03-23T10:35:36;11.00;73.90
152;DHT22;68;48.792;9.164;2024-03-23T10:38:04;10.60;73.90
152;DHT22;68;48.792;9.164;2024-03-23T10:40:34;10.70;76.40
152;DHT22;68;48.792;9.164;2024-03-23T10:43:00;10.70;74.50
152;DHT22;68;48.792;9.164;2024-03-23T10:45:27;10.50;74.40
152;DHT22;68;48.792;9.164;2024-03-23T10:47:53;10.40;74.50
152;DHT22;68;48.792;9.164;2024-03-23T10:50:20;10.30;75.70
152;DHT22;68;48.792;9.164;2024-03-23T10:52:47;10.10;76.20
152;DHT22;68;48.792;9.164;2024-03-23T10:55:17;9.90;77.90
152;DHT22;68;48.792;9.164;2024-03-23T10:57:49;9.60;82.80
152;DHT22;68;48.792;9.164;2024-03-23T11:00:18;8.90;89.40
152;DHT22;68;48.792;9.164;2024-03-23T11:02:44;8.50;94.00
152;DHT22;68;48.792;9.164;2024-03-23T11:05:28;8.10;94.60
152;DHT22;68;48.792;9.164;2024-03-23T11:07:54;7.70;94.60
152;DHT22;68;48.792;9.164;2024-03-23T11:10:31;7.20;92.70
152;DHT22;68;48.792;9.164;2024-03-23T11:13:22;6.90;90.00
152;DHT22;68;48.792;9.164;2024-03-23T11:15:49;6.90;79.20
152;DHT22;68;48.792;9.164;2024-03-23T11:18:20;7.10;76.70
152;DHT22;68;48.792;9.164;2024-03-23T11:20:47;7.40;82.70
152;DHT22;68;48.792;9.164;2024-03-23T11:23:27;7.60;89.10
152;DHT22;68;48.792;9.164;2024-03-23T11:25:54;7.90;91.50
152;DHT22;68;48.792;9.164;2024-03-23T11:28:21;8.50;91.80
152;DHT22;68;48.792;9.164;2024-03-23T11:30:48;8.80;91.60
152;DHT22;68;48.792;9.164;2024-03-23T11:33:14;8.60;94.00
152;DHT22;68;48.792;9.164;2024-03-23T11:35:41;8.90;91.20
152;DHT22;68;48.792;9.164;2024-03-23T11:38:08;10.70;97.10
152;DHT22;68;48.792;9.164;2024-03-23T11:40:37;10.40;94.70
152;DHT22;68;48.792;9.164;2024-03-23T11:43:04;10.40;93.80
152;DHT22;68;48.792;9.164;2024-03-23T11:45:36;10.20;93.60
152;DHT22;68;48.792;9.164;2024-03-23T11:48:07;10.90;88.50
152;DHT22;68;48.792;9.164;2024-03-23T11:50:36;11.20;92.00
152;DHT22;68;48.792;9.164;2024-03-23T11:53:15;11.70;88.80
152;DHT22;68;48.792;9.164;2024-03-23T11:55:46;11.50;89.10
152;DHT22;68;48.792;9.164;2024-03-23T11:58:13;11.70;85.80
152;DHT22;68;48.792;9.164;2024-03-23T12:00:41;11.30;80.00
152;DHT22;68;48.792;9.164;2024-03-23T12:03:08;11.10;81.80
152;DHT22;68;48.792;9.164;2024-03-23T12:05:37;10.80;79.70
152;DHT22;68;48.792;9.164;2024-03-23T12:08:23;10.30;84.90
152;DHT22;68;48.792;9.164;2024-03-23T12:10:52;10.30;85.80
152;DHT22;68;48.792;9.164;2024-03-23T12:13:19;10.30;82.60
152;DHT22;68;48.792;9.164;2024-03-23T12:15:48;10.20;85.00
152;DHT22;68;48.792;9.164;2024-03-23T12:18:14;10.40;84.20
152;DHT22;68;48.792;9.164;2024-03-23T12:20:41;10.60;81.80
152;DHT22;68;48.792;9.164;2024-03-23T12:23:11;10.50;79.40
152;DHT22;68;48.792;9.164;2024-03-23T12:25:40;10.70;83.00
152;DHT22;68;48.792;9.164;2024-03-23T12:28:07;11.40;75.20
152;DHT22;68;48.792;9.164;2024-03-23T12:30:35;10.80;78.00
152;DHT22;68;48.792;9.164;2024-03-23T12:33:02;11.10;76.10
152;DHT22;68;48.792;9.164;2024-03-23T12:35:29;11.30;76.60
152;DHT22;68;48.792;9.164;2024-03-23T12:37:55;11.20;73.20
152;DHT22;68;48.792;9.164;2024-03-23T12:40:22;11.20;72.60
152;DHT22;68;48.792;9.164;2024-03-23T12:42:48;10.70;75.80
152;DHT22;68;48.792;9.164;2024-03-23T12:45:15;10.60;77.10
152;DHT22;68;48.792;9.164;2024-03-23T12:47:41;10.90;74.60
152;DHT22;68;48.792;9.164;2024-03-23T12:50:09;10.60;75.90
152;DHT22;68;48.792;9.164;2024-03-23T12:52:35;10.60;75.30
152;DHT22;68;48.792;9.164;2024-03-23T12:55:02;10.20;77.70
152;DHT22;68;48.792;9.164;2024-03-23T12:57:29;10.10;76.10
152;DHT22;68;48.792;9.164;2024-03-23T12:59:55;10.10;77.70
152;DHT22;68;48.792;9.164;2024-03-23T13:02:22;10.20;77.00
152;DHT22;68;48.792;9.164;2024-03-23T13:04:49;10.30;80.00
152;DHT22;68;48.792;9.164;2024-03-23T13:07:18;10.80;79.00
152;DHT22;68;48.792;9.164;2024-03-23T13:09:45;11.20;76.20
152;DHT22;68;48.792;9.164;2024-03-23T13:12:11;11.50;75.00
152;DHT22;68;48.792;9.164;2024-03-23T13:14:38;11.90;73.60
152;DHT22;68;48.792;9.164;2024-03-23T13:17:05;11.60;73.50
152;DHT22;68;48.792;9.164;2024-03-23T13:19:31;11.50;73.50
152;DHT22;68;48.792;9.164;2024-03-23T13:21:57;11.90;71.60
152;DHT22;68;48.792;9.164;2024-03-23T13:24:27;12.20;70.60
152;DHT22;68;48.792;9.164;2024-03-23T13:26:54;12.00;68.10
152;DHT22;68;48.792;9.164;2024-03-23T13:29:21;11.80;68.60
152;DHT22;68;48.792;9.164;2024-03-23T13:31:48;11.40;71.90
152;DHT22;68;48.792;9.164;2024-03-23T13:34:16;11.00;71.10
152;DHT22;68;48.792;9.164;2024-03-23T13:36:41;11.10;70.20
152;DHT22;68;48.792;9.164;2024-03-23T13:39:08;11.10;67.80
152;DHT22;68;48.792;9.164;2024-03-23T13:41:38;11.00;66.60
152;DHT22;68;48.792;9.164;2024-03-23T13:44:05;11.10;68.20
152;DHT22;68;48.792;9.164;2024-03-23T13:46:31;11.10;69.00
152;DHT22;68;48.792;9.164;2024-03-23T13:48:58;11.40;65.60
152;DHT22;68;48.792;9.164;2024-03-23T13:51:24;11.50;66.20
152;DHT22;68;48.792;9.164;2024-03-23T13:53:52;11.60;67.20
152;DHT22;68;48.792;9.164;2024-03-23T13:56:18;11.90;65.30
152;DHT22;68;48.792;9.164;2024-03-23T13:58:46;11.80;66.60
152;DHT22;68;48.792;9.164;2024-03-23T14:01:13;11.60;67.20
152;DHT22;68;48.792;9.164;2024-03-23T14:03:41;11.60;67.50
152;DHT22;68;48.792;9.164;2024-03-23T14:06:07;11.40;67.20
152;DHT22;68;48.792;9.164;2024-03-23T14:08:35;10.80;72.70
152;DHT22;68;48.792;9.164;2024-03-23T14:11:02;10.00;80.70
152;DHT22;68;48.792;9.164;2024-03-23T14:13:30;8.90;89.80
152;DHT22;68;48.792;9.164;2024-03-23T14:15:58;8.50;92.90
152;DHT22;68;48.792;9.164;2024-03-23T14:18:25;7.70;95.10
152;DHT22;68;48.792;9.164;2024-03-23T14:20:52;7.30;95.30
152;DHT22;68;48.792;9.164;2024-03-23T14:23:19;7.00;88.60
152;DHT22;68;48.792;9.164;2024-03-23T14:25:45;6.70;91.40
152;DHT22;68;48.792;9.164;2024-03-23T14:28:12;6.50;92.80
152;DHT22;68;48.792;9.164;2024-03-23T14:30:40;6.50;85.90
152;DHT22;68;48.792;9.164;2024-03-23T14:33:09;6.70;74.30
152;DHT22;68;48.792;9.164;2024-03-23T14:35:35;7.10;78.40
152;DHT22;68;48.792;9.164;2024-03-23T14:38:02;7.20;86.20
152;DHT22;68;48.792;9.164;2024-03-23T14:40:28;7.10;86.80
152;DHT22;68;48.792;9.164;2024-03-23T14:42:55;7.30;87.50
152;DHT22;68;48.792;9.164;2024-03-23T14:45:21;7.30;89.60
152;DHT22;68;48.792;9.164;2024-03-23T14:47:49;7.40;80.70
152;DHT22;68;48.792;9.164;2024-03-23T14:50:16;7.50;85.90
152;DHT22;68;48.792;9.164;2024-03-23T14:52:44;7.30;94.10
152;DHT22;68;48.792;9.164;2024-03-23T14:55:10;7.30;90.50
152;DHT22;68;48.792;9.164;2024-03-23T14:57:37;7.30;87.20
152;DHT22;68;48.792;9.164;2024-03-23T15:00:07;7.30;95.20
152;DHT22;68;48.792;9.164;2024-03-23T15:02:36;7.40;94.60
152;DHT22;68;48.792;9.164;2024-03-23T15:05:02;7.30;94.70
152;DHT22;68;48.792;9.164;2024-03-23T15:07:31;7.40;93.80
152;DHT22;68;48.792;9.164;2024-03-23T15:09:57;7.70;95.20
152;DHT22;68;48.792;9.164;2024-03-23T15:12:24;7.80;96.40
152;DHT22;68;48.792;9.164;2024-03-23T15:14:50;7.80;96.80
152;DHT22;68;48.792;9.164;2024-03-23T15:17:16;7.60;96.10
152;DHT22;68;48.792;9.164;2024-03-23T15:19:44;7.50;95.90
152;DHT22;68;48.792;9.164;2024-03-23T15:22:10;7.40;96.10
152;DHT22;68;48.792;9.164;2024-03-23T15:24:37;7.40;96.10
152;DHT22;68;48.792;9.164;2024-03-23T15:27:04;7.40;96.00
152;DHT22;68;48.792;9.164;2024-03-23T15:29:30;7.40;95.80
152;DHT22;68;48.792;9.164;2024-03-23T15:31:57;7.50;94.50
152;DHT22;68;48.792;9.164;2024-03-23T15:34:23;7.70;95.30
152;DHT22;68;48.792;9.164;2024-03-23T15:36:50;7.70;94.90
152;DHT22;68;48.792;9.164;2024-03-23T15:39:16;7.70;95.60
152;DHT22;68;48.792;9.164;2024-03-23T15:41:45;7.70;95.50
152;DHT22;68;48.792;9.164;2024-03-23T15:44:11;7.60;94.80
152;DHT22;68;48.792;9.164;2024-03-23T15:46:39;7.80;94.20
152;DHT22;68;48.792;9.164;2024-03-23T15:49:04;7.90;93.50
152;DHT22;68;48.792;9.164;2024-03-23T15:51:31;8.10;93.80
152;DHT22;68;48.792;9.164;2024-03-23T15:54:00;7.90;92.10
152;DHT22;68;48.792;9.164;2024-03-23T15:56:26;7.90;89.80
152;DHT22;68;48.792;9.164;2024-03-23T15:58:55;7.80;93.50
152;DHT22;68;48.792;9.164;2024-03-23T16:01:28;7.70;93.20
152;DHT22;68;48.792;9.164;2024-03-23T16:03:53;7.80;92.10
152;DHT22;68;48.792;9.164;2024-03-23T16:06:20;7.70;94.40
152;DHT22;68;48.792;9.164;2024-03-23T16:08:46;7.90;90.00
152;DHT22;68;48.792;9.164;2024-03-23T16:11:13;8.10;89.30
152;DHT22;68;48.792;9.164;2024-03-23T16:13:38;8.20;89.40
152;DHT22;68;48.792;9.164;2024-03-23T16:16:07;8.30;90.00
152;DHT22;68;48.792;9.164;2024-03-23T16:18:35;8.30;89.90
152;DHT22;68;48.792;9.164;2024-03-23T16:21:03;8.40;88.70
152;DHT22;68;48.792;9.164;2024-03-23T16:23:31;8.20;88.60
152;DHT22;68;48.792;9.164;2024-03-23T16:25:58;8.20;89.00
152;DHT22;68;48.792;9.164;2024-03-23T16:28:25;8.10;89.80
152;DHT22;68;48.792;9.164;2024-03-23T16:30:54;7.90;88.30
152;DHT22;68;48.792;9.164;2024-03-23T16:33:22;7.80;87.00
152;DHT22;68;48.792;9.164;2024-03-23T16:35:56;7.80;87.70
152;DHT22;68;48.792;9.164;2024-03-23T16:38:22;7.80;87.20
152;DHT22;68;48.792;9.164;2024-03-23T16:40:56;8.00;86.90
152;DHT22;68;48.792;9.164;2024-03-23T16:43:22;7.80;86.50
152;DHT22;68;48.792;9.164;2024-03-23T16:45:57;7.80;86.10
152;DHT22;68;48.792;9.164;2024-03-23T16:48:25;7.70;86.90
152;DHT22;68;48.792;9.164;2024-03-23T16:50:52;7.60;88.80
152;DHT22;68;48.792;9.164;2024-03-23T16:53:19;7.40;91.10
152;DHT22;68;48.792;9.164;2024-03-23T16:55:46;7.10;93.90
152;DHT22;68;48.792;9.164;2024-03-23T16:58:12;7.10;95.40
152;DHT22;68;48.792;9.164;2024-03-23T17:00:39;7.10;94.00
152;DHT22;68;48.792;9.164;2024-03-23T17:03:05;7.20;94.30
152;DHT22;68;48.792;9.164;2024-03-23T17:05:38;7.40;94.80
152;DHT22;68;48.792;9.164;2024-03-23T17:08:05;7.30;95.80
152;DHT22;68;48.792;9.164;2024-03-23T17:10:32;7.40;94.60
152;DHT22;68;48.792;9.164;2024-03-23T17:12:58;7.30;94.90
152;DHT22;68;48.792;9.164;2024-03-23T17:15:25;7.10;95.70
152;DHT22;68;48.792;9.164;2024-03-23T17:17:51;7.00;95.00
152;DHT22;68;48.792;9.164;2024-03-23T17:20:19;6.80;95.40
152;DHT22;68;48.792;9.164;2024-03-23T17:22:53;6.90;94.30
152;DHT22;68;48.792;9.164;2024-03-23T17:25:20;6.90;94.60
152;DHT22;68;48.792;9.164;2024-03-23T17:27:46;7.00;93.40
152;DHT22;68;48.792;9.164;2024-03-23T17:30:13;7.10;92.60
152;DHT22;68;48.792;9.164;2024-03-23T17:32:41;7.40;93.40
152;DHT22;68;48.792;9.164;2024-03-23T17:35:09;7.30;92.50
152;DHT22;68;48.792;9.164;2024-03-23T17:37:35;7.20;92.70
152;DHT22;68;48.792;9.164;2024-03-23T17:40:05;7.20;93.40
152;DHT22;68;48.792;9.164;2024-03-23T17:42:33;6.90;94.30
152;DHT22;68;48.792;9.164;2024-03-23T17:45:01;6.60;96.30
152;DHT22;68;48.792;9.164;2024-03-23T17:47:27;6.00;95.10
152;DHT22;68;48.792;9.164;2024-03-23T17:49:53;5.60;90.70
152;DHT22;68;48.792;9.164;2024-03-23T17:52:19;5.30;82.90